Terminal Aerodrome Forecast
Issued by NWS

Home | Current Version | Previous Version | Text Only | Print | Product List | Glossary On
Versions: 1 2 3 4 5 6 7 8 9 10 11 12 13 14
000
FTUS43 KDTX 220522
TAFDET
TAF
KDET 220522Z 2206/2306 19005KT 3SM BR SCT015 BKN045
     FM220900 19004KT 1 1/2SM BR SCT005 OVC015
      TEMPO 2209/2213 1/2SM FG OVC004
     FM221400 20006KT 4SM BR SCT008 OVC022
     FM221600 20010KT P6SM OVC150
     FM222200 18007KT P6SM BKN200=

USA.gov is the U.S. government's official web portal to all federal, state and local government web resources and services.